createdAt,value
2023-05-21T00:01:37.805Z,88.88
2023-05-21T00:04:06.475Z,88.65
2023-05-21T00:06:36.183Z,88.32
2023-05-21T00:09:06.802Z,87.02
2023-05-21T00:11:33.928Z,87.53
2023-05-21T00:14:00.943Z,86.41
2023-05-21T00:16:28.065Z,86.20
2023-05-21T00:18:55.442Z,86.39
2023-05-21T00:21:22.930Z,86.85
2023-05-21T00:23:50.447Z,87.82
2023-05-21T00:26:17.543Z,88.37
2023-05-21T00:28:44.404Z,88.77
2023-05-21T00:31:11.474Z,89.56
2023-05-21T00:33:38.464Z,88.95
2023-05-21T00:36:06.332Z,90.25
2023-05-21T00:38:33.448Z,90.25
2023-05-21T00:41:03.134Z,90.85
2023-05-21T00:43:30.161Z,91.12
2023-05-21T00:45:59.391Z,91.40
2023-05-21T00:48:26.464Z,91.91
2023-05-21T00:50:53.767Z,91.29
2023-05-21T00:53:39.904Z,91.80
2023-05-21T00:56:07.816Z,93.49
2023-05-21T00:58:35.984Z,93.91
2023-05-21T01:03:38.851Z,94.05
2023-05-21T01:06:07.044Z,94.17
2023-05-21T01:08:36.403Z,95.07
2023-05-21T01:11:05.895Z,95.75
2023-05-21T01:13:34.876Z,94.36
2023-05-21T01:16:03.171Z,95.51
2023-05-21T01:18:30.251Z,95.76
2023-05-21T01:20:57.453Z,95.88
2023-05-21T01:23:24.422Z,95.89
2023-05-21T01:25:51.492Z,96.18
2023-05-21T01:28:18.356Z,96.64
2023-05-21T01:30:45.284Z,96.93
2023-05-21T01:33:39.290Z,96.44
2023-05-21T01:36:16.177Z,95.90
2023-05-21T01:39:17.569Z,96.54
2023-05-21T01:41:47.964Z,95.24
2023-05-21T01:44:16.968Z,96.53
2023-05-21T01:46:44.008Z,96.84
2023-05-21T01:49:11.869Z,96.41
2023-05-21T01:51:39.342Z,96.78
2023-05-21T01:54:06.421Z,96.63
2023-05-21T01:56:34.085Z,96.64
2023-05-21T01:59:01.061Z,95.65
2023-05-21T02:01:30.437Z,96.71
2023-05-21T02:03:58.342Z,95.99
2023-05-21T02:06:25.542Z,97.52
2023-05-21T02:08:52.615Z,98.39
2023-05-21T02:11:20.948Z,97.76
2023-05-21T02:13:47.819Z,97.83
2023-05-21T02:16:16.140Z,97.71
2023-05-21T02:18:46.609Z,98.87
2023-05-21T02:21:13.610Z,98.37
2023-05-21T02:23:41.926Z,97.59
2023-05-21T02:26:08.928Z,96.87
2023-05-21T02:28:38.628Z,97.41
2023-05-21T02:31:05.916Z,97.70
2023-05-21T02:33:32.922Z,97.38
2023-05-21T02:35:59.799Z,98.58
2023-05-21T02:38:26.827Z,98.11
2023-05-21T02:40:53.877Z,98.29
2023-05-21T02:43:21.212Z,98.05
2023-05-21T02:45:48.225Z,98.55
2023-05-21T02:48:15.332Z,98.97
2023-05-21T02:50:42.362Z,99.07
2023-05-21T02:53:09.346Z,98.81
2023-05-21T02:55:36.565Z,99.39
2023-05-21T02:58:03.581Z,98.87
2023-05-21T03:00:31.170Z,98.74
2023-05-21T03:02:58.212Z,98.70
2023-05-21T03:05:27.885Z,98.82
2023-05-21T03:07:54.812Z,99.54
2023-05-21T03:10:21.909Z,99.73
2023-05-21T03:12:48.968Z,99.33
2023-05-21T03:15:16.541Z,99.00
2023-05-21T03:17:44.829Z,99.24
2023-05-21T03:20:18.898Z,98.38
2023-05-21T03:22:46.649Z,98.37
2023-05-21T03:25:13.796Z,99.35
2023-05-21T03:27:41.018Z,98.93
2023-05-21T03:30:08.357Z,99.85
2023-05-21T03:32:38.111Z,98.90
2023-05-21T03:35:05.611Z,98.78
2023-05-21T03:37:32.438Z,98.63
2023-05-21T03:39:59.268Z,98.93
2023-05-21T03:42:26.412Z,99.45
2023-05-21T03:44:53.462Z,99.63
2023-05-21T03:47:20.635Z,98.89
2023-05-21T03:49:47.725Z,98.05
2023-05-21T03:52:14.736Z,98.13
2023-05-21T03:54:41.630Z,98.49
2023-05-21T03:57:08.669Z,97.87
2023-05-21T03:59:35.530Z,98.28
2023-05-21T04:02:02.822Z,97.59
2023-05-21T04:04:29.928Z,97.52
2023-05-21T04:06:56.819Z,97.92
2023-05-21T04:09:23.807Z,97.29
2023-05-21T04:11:50.840Z,95.60
2023-05-21T04:14:17.660Z,95.56
2023-05-21T04:16:44.517Z,96.39
2023-05-21T04:19:11.482Z,96.39
2023-05-21T04:21:38.378Z,95.14
2023-05-21T04:24:05.277Z,93.52
2023-05-21T04:26:36.337Z,92.11
2023-05-21T04:29:03.946Z,92.30
2023-05-21T04:31:32.668Z,90.82
2023-05-21T04:33:59.776Z,91.00
2023-05-21T04:36:29.135Z,89.78
2023-05-21T04:38:56.217Z,86.75
2023-05-21T04:41:23.203Z,84.36
2023-05-21T04:43:55.233Z,83.58
2023-05-21T04:46:25.655Z,83.39
2023-05-21T04:48:55.319Z,82.25
2023-05-21T04:51:24.854Z,83.54
2023-05-21T04:53:52.257Z,80.63
2023-05-21T04:56:19.165Z,80.42
2023-05-21T04:58:48.081Z,79.83
2023-05-21T05:01:19.387Z,78.38
2023-05-21T05:03:46.479Z,77.53
2023-05-21T05:06:13.442Z,79.12
2023-05-21T05:08:40.397Z,76.57
2023-05-21T05:11:07.462Z,73.90
2023-05-21T05:13:35.206Z,75.08
2023-05-21T05:16:02.850Z,72.91
2023-05-21T05:18:29.783Z,72.48
2023-05-21T05:20:56.597Z,71.56
2023-05-21T05:23:23.561Z,70.27
2023-05-21T05:25:50.351Z,69.96
2023-05-21T05:28:17.299Z,68.92
2023-05-21T05:30:44.396Z,67.31
2023-05-21T05:33:12.264Z,66.33
2023-05-21T05:35:39.125Z,64.56
2023-05-21T05:38:06.488Z,66.98
2023-05-21T05:40:33.343Z,63.34
2023-05-21T05:43:00.233Z,63.30
2023-05-21T05:45:27.183Z,63.46
2023-05-21T05:47:54.111Z,63.06
2023-05-21T05:50:21.266Z,62.81
2023-05-21T05:52:48.160Z,63.67
2023-05-21T05:55:15.934Z,63.34
2023-05-21T05:57:44.973Z,63.72
2023-05-21T06:00:12.768Z,61.88
2023-05-21T06:02:40.016Z,60.00
2023-05-21T06:05:07.487Z,58.81
2023-05-21T06:07:34.437Z,59.50
2023-05-21T06:10:01.255Z,57.29
2023-05-21T06:12:28.077Z,59.34
2023-05-21T06:14:54.966Z,58.95
2023-05-21T06:17:21.826Z,60.25
2023-05-21T06:19:48.755Z,59.98
2023-05-21T06:22:15.687Z,56.82
2023-05-21T06:24:42.547Z,54.33
2023-05-21T06:27:09.373Z,54.65
2023-05-21T06:29:36.436Z,54.46
2023-05-21T06:32:03.755Z,53.55
2023-05-21T06:34:30.602Z,55.42
2023-05-21T06:36:57.870Z,54.54
2023-05-21T06:39:25.006Z,54.51
2023-05-21T06:41:52.323Z,53.26
2023-05-21T06:44:19.352Z,51.08
2023-05-21T06:46:46.355Z,50.78
2023-05-21T06:49:14.507Z,52.06
2023-05-21T06:51:41.501Z,55.19
2023-05-21T06:54:08.305Z,53.90
2023-05-21T06:56:35.113Z,53.74
2023-05-21T06:59:01.946Z,54.11
2023-05-21T07:01:29.339Z,48.59
2023-05-21T07:06:38.181Z,50.87
2023-05-21T07:09:09.191Z,50.86
2023-05-21T07:11:36.185Z,47.55
2023-05-21T07:14:04.194Z,48.25
2023-05-21T07:16:31.061Z,48.24
2023-05-21T07:18:57.943Z,47.68
2023-05-21T07:21:29.528Z,46.58
2023-05-21T07:23:56.857Z,45.02
2023-05-21T07:26:23.770Z,45.01
2023-05-21T07:28:50.877Z,43.10
2023-05-21T07:31:17.820Z,43.23
2023-05-21T07:33:44.673Z,43.89
2023-05-21T07:36:11.631Z,43.15
2023-05-21T07:38:40.305Z,41.06
2023-05-21T07:41:07.208Z,41.65
2023-05-21T07:43:34.073Z,43.52
2023-05-21T07:46:01.120Z,43.39
2023-05-21T07:48:28.129Z,42.10
2023-05-21T07:50:56.737Z,42.56
2023-05-21T07:53:23.609Z,44.69
2023-05-21T07:55:50.608Z,43.54
2023-05-21T07:58:18.911Z,42.34
2023-05-21T08:00:51.156Z,42.36
2023-05-21T08:03:18.814Z,42.66
2023-05-21T08:05:49.251Z,40.92
2023-05-21T08:08:17.713Z,41.31
2023-05-21T08:10:45.044Z,39.92
2023-05-21T08:13:12.970Z,40.08
2023-05-21T08:15:40.308Z,40.63
2023-05-21T08:18:07.191Z,41.07
2023-05-21T08:20:34.602Z,42.89
2023-05-21T08:23:01.659Z,42.55
2023-05-21T08:25:28.927Z,41.88
2023-05-21T08:27:56.232Z,41.41
2023-05-21T08:30:23.124Z,41.81
2023-05-21T08:32:50.239Z,42.23
2023-05-21T08:35:17.218Z,42.18
2023-05-21T08:37:44.057Z,41.47
2023-05-21T08:40:12.448Z,41.76
2023-05-21T08:42:47.384Z,42.82
2023-05-21T08:45:20.929Z,41.12
2023-05-21T08:47:48.623Z,41.24
2023-05-21T08:50:19.638Z,41.80
2023-05-21T08:52:46.548Z,42.58
2023-05-21T08:55:14.233Z,42.85
2023-05-21T08:57:44.750Z,43.49
2023-05-21T09:00:12.375Z,46.72
2023-05-21T09:02:44.158Z,43.63
2023-05-21T09:05:12.468Z,42.40
2023-05-21T09:07:55.941Z,40.79
2023-05-21T09:10:26.811Z,39.32
2023-05-21T09:12:53.873Z,40.14
2023-05-21T09:15:21.953Z,38.29
2023-05-21T09:17:49.242Z,37.92
2023-05-21T09:20:16.698Z,37.20
2023-05-21T09:22:50.673Z,37.85
2023-05-21T09:25:21.950Z,41.01
2023-05-21T09:27:49.125Z,40.30
2023-05-21T09:30:18.039Z,41.09
2023-05-21T09:32:46.480Z,40.18
2023-05-21T09:35:16.133Z,40.82
2023-05-21T09:37:45.235Z,40.09
2023-05-21T09:40:13.130Z,42.05
2023-05-21T09:42:41.114Z,40.70
2023-05-21T09:45:09.790Z,41.48
2023-05-21T09:47:46.610Z,38.92
2023-05-21T09:50:36.254Z,39.40
2023-05-21T09:53:03.515Z,37.83
2023-05-21T09:55:30.346Z,37.51
2023-05-21T09:57:58.386Z,37.30
2023-05-21T10:00:28.422Z,36.49
2023-05-21T10:02:57.200Z,37.51
2023-05-21T10:05:28.369Z,38.48
2023-05-21T10:08:03.871Z,39.95
2023-05-21T10:10:32.105Z,39.35
2023-05-21T10:13:09.019Z,38.93
2023-05-21T10:15:42.629Z,38.67
2023-05-21T10:18:10.776Z,37.99
2023-05-21T10:20:38.681Z,36.52
2023-05-21T10:23:06.386Z,35.91
2023-05-21T10:25:33.694Z,36.75
2023-05-21T10:28:01.193Z,36.25
2023-05-21T10:30:28.386Z,35.56
2023-05-21T10:32:57.474Z,34.44
2023-05-21T10:35:24.921Z,36.24
2023-05-21T10:37:53.461Z,36.15
2023-05-21T10:40:20.646Z,35.88
2023-05-21T10:43:09.184Z,35.34
2023-05-21T10:46:14.688Z,33.80
2023-05-21T10:49:11.219Z,34.90
2023-05-21T10:52:19.832Z,36.02
2023-05-21T10:55:05.568Z,35.51
2023-05-21T10:57:40.306Z,35.46
2023-05-21T11:00:09.746Z,35.63
2023-05-21T11:02:37.479Z,35.16
2023-05-21T11:05:04.818Z,35.36
2023-05-21T11:07:57.318Z,35.22
2023-05-21T11:10:39.302Z,35.30
2023-05-21T11:13:22.559Z,35.41
2023-05-21T11:15:58.658Z,35.22
2023-05-21T11:18:38.539Z,35.33
2023-05-21T11:21:06.642Z,35.40
2023-05-21T11:23:52.968Z,35.65
2023-05-21T11:26:49.209Z,35.87
2023-05-21T11:29:16.738Z,35.79
2023-05-21T11:31:48.574Z,35.88
2023-05-21T11:34:29.748Z,36.56
2023-05-21T11:37:15.401Z,34.80
2023-05-21T11:39:42.745Z,34.97
2023-05-21T11:42:09.684Z,33.83
2023-05-21T11:44:41.005Z,33.99
2023-05-21T11:47:19.339Z,34.09
2023-05-21T11:49:47.038Z,33.93
2023-05-21T11:52:15.012Z,33.02
2023-05-21T11:54:48.854Z,33.46
2023-05-21T11:57:17.866Z,33.27
2023-05-21T11:59:54.190Z,32.30
2023-05-21T12:02:22.954Z,31.61
2023-05-21T12:04:51.076Z,31.54
2023-05-21T12:07:20.203Z,32.36
2023-05-21T12:09:49.839Z,32.74
2023-05-21T12:12:24.624Z,30.79
2023-05-21T12:14:53.328Z,27.81
2023-05-21T12:17:22.397Z,30.33
2023-05-21T12:19:52.140Z,29.37
2023-05-21T12:22:19.584Z,29.95
2023-05-21T12:24:47.048Z,30.36
2023-05-21T12:27:17.096Z,30.82
2023-05-21T12:29:50.210Z,30.91
2023-05-21T12:32:17.076Z,30.95
2023-05-21T12:34:54.856Z,31.63
2023-05-21T12:37:31.558Z,30.90
2023-05-21T12:39:59.977Z,32.11
2023-05-21T12:42:31.184Z,32.86
2023-05-21T12:44:58.912Z,33.69
2023-05-21T12:47:27.377Z,33.41
2023-05-21T12:49:58.074Z,34.33
2023-05-21T12:52:25.698Z,33.47
2023-05-21T12:54:54.091Z,33.81
2023-05-21T12:57:25.961Z,33.73
2023-05-21T12:59:57.394Z,32.51
2023-05-21T13:02:40.541Z,32.68
2023-05-21T13:05:16.591Z,31.77
2023-05-21T13:07:46.891Z,31.24
2023-05-21T13:10:16.951Z,31.52
2023-05-21T13:12:45.224Z,30.94
2023-05-21T13:15:12.378Z,30.46
2023-05-21T13:17:39.294Z,29.97
2023-05-21T13:20:09.630Z,29.04
2023-05-21T13:22:48.030Z,28.56
2023-05-21T13:25:21.326Z,28.64
2023-05-21T13:27:52.816Z,29.30
2023-05-21T13:30:20.548Z,29.21
2023-05-21T13:32:48.600Z,28.33
2023-05-21T13:35:16.940Z,28.22
2023-05-21T13:37:44.705Z,29.46
2023-05-21T13:40:15.203Z,28.95
2023-05-21T13:42:46.772Z,28.83
2023-05-21T13:45:16.351Z,29.41
2023-05-21T13:47:44.532Z,28.35
2023-05-21T13:50:11.931Z,28.26
2023-05-21T13:52:39.077Z,28.67
2023-05-21T13:55:06.669Z,29.04
2023-05-21T13:57:33.675Z,29.63
2023-05-21T14:00:01.683Z,29.71
2023-05-21T14:02:28.952Z,29.95
2023-05-21T14:04:56.381Z,29.91
2023-05-21T14:07:23.354Z,29.57
2023-05-21T14:09:50.282Z,29.77
2023-05-21T14:12:17.424Z,30.39
2023-05-21T14:14:44.365Z,29.35
2023-05-21T14:17:11.264Z,27.21
2023-05-21T14:19:38.427Z,27.83
2023-05-21T14:22:06.073Z,27.79
2023-05-21T14:24:33.119Z,27.06
2023-05-21T14:27:00.340Z,27.11
2023-05-21T14:29:27.230Z,27.11
2023-05-21T14:31:54.132Z,26.49
2023-05-21T14:34:21.078Z,26.98
2023-05-21T14:36:47.914Z,26.83
2023-05-21T14:39:14.898Z,26.64
2023-05-21T14:41:41.957Z,27.04
2023-05-21T14:44:08.880Z,27.23
2023-05-21T14:46:36.893Z,26.96
2023-05-21T14:49:04.118Z,27.65
2023-05-21T14:51:31.848Z,27.85
2023-05-21T14:53:58.888Z,28.01
2023-05-21T14:56:27.933Z,27.12
2023-05-21T14:58:55.680Z,27.11
2023-05-21T15:01:23.059Z,26.85
2023-05-21T15:03:50.245Z,27.43
2023-05-21T15:06:17.242Z,27.47
2023-05-21T15:08:44.097Z,27.52
2023-05-21T15:11:11.883Z,27.24
2023-05-21T15:13:38.822Z,28.50
2023-05-21T15:16:06.267Z,27.81
2023-05-21T15:18:33.509Z,27.40
2023-05-21T15:21:00.617Z,27.43
2023-05-21T15:23:27.717Z,27.71
2023-05-21T15:25:54.675Z,27.73
2023-05-21T15:28:23.111Z,27.79
2023-05-21T15:30:50.476Z,28.25
2023-05-21T15:33:17.749Z,28.09
2023-05-21T15:35:44.881Z,28.89
2023-05-21T15:38:12.080Z,29.27
2023-05-21T15:40:41.452Z,29.45
2023-05-21T15:43:08.427Z,29.75
2023-05-21T15:45:35.497Z,29.79
2023-05-21T15:48:02.611Z,29.76
2023-05-21T15:50:29.644Z,28.76
2023-05-21T15:52:56.496Z,28.86
2023-05-21T15:55:23.449Z,28.34
2023-05-21T15:57:50.255Z,29.17
2023-05-21T16:00:17.258Z,28.93
2023-05-21T16:02:44.413Z,28.98
2023-05-21T16:05:11.448Z,28.90
2023-05-21T16:07:38.580Z,29.12
2023-05-21T16:10:06.672Z,32.90
2023-05-21T16:12:33.520Z,30.23
2023-05-21T16:15:00.551Z,29.69
2023-05-21T16:17:27.554Z,30.87
2023-05-21T16:19:54.435Z,30.99
2023-05-21T16:22:22.260Z,33.88
2023-05-21T16:24:49.187Z,38.00
2023-05-21T16:27:16.179Z,39.75
2023-05-21T16:29:43.099Z,40.41
2023-05-21T16:32:10.902Z,41.76
2023-05-21T16:34:37.790Z,43.11
2023-05-21T16:37:05.267Z,44.32
2023-05-21T16:39:32.322Z,44.97
2023-05-21T16:42:00.512Z,45.74
2023-05-21T16:44:27.764Z,46.02
2023-05-21T16:46:54.830Z,46.15
2023-05-21T16:49:21.669Z,46.09
2023-05-21T16:51:48.536Z,46.86
2023-05-21T16:54:15.605Z,46.06
2023-05-21T16:56:42.469Z,46.28
2023-05-21T16:59:09.522Z,46.53
2023-05-21T17:01:36.892Z,46.98
2023-05-21T17:04:04.207Z,46.64
2023-05-21T17:06:31.785Z,46.91
2023-05-21T17:08:58.685Z,46.22
2023-05-21T17:11:25.613Z,46.31
2023-05-21T17:13:52.529Z,46.67
2023-05-21T17:16:19.509Z,46.63
2023-05-21T17:18:46.369Z,46.90
2023-05-21T17:21:13.780Z,46.71
2023-05-21T17:23:43.000Z,46.65
2023-05-21T17:26:11.198Z,47.13
2023-05-21T17:28:38.117Z,47.25
2023-05-21T17:31:05.078Z,47.47
2023-05-21T17:33:32.073Z,47.74
2023-05-21T17:35:58.956Z,48.26
2023-05-21T17:38:25.800Z,47.95
2023-05-21T17:40:52.729Z,48.19
2023-05-21T17:43:19.755Z,48.03
2023-05-21T17:45:46.616Z,48.51
2023-05-21T17:48:13.544Z,48.46
2023-05-21T17:50:40.670Z,48.80
2023-05-21T17:53:08.260Z,49.20
2023-05-21T17:55:35.788Z,49.67
2023-05-21T17:58:02.809Z,49.68
2023-05-21T18:00:29.757Z,49.68
2023-05-21T18:02:56.695Z,50.51
2023-05-21T18:05:24.758Z,50.06
2023-05-21T18:07:51.638Z,51.14
2023-05-21T18:10:19.103Z,51.00
2023-05-21T18:12:46.562Z,52.38
2023-05-21T18:15:14.855Z,53.23
2023-05-21T18:17:41.970Z,53.09
2023-05-21T18:20:09.600Z,54.70
2023-05-21T18:22:36.905Z,55.75
2023-05-21T18:25:05.078Z,58.21
2023-05-21T18:27:31.995Z,57.71
2023-05-21T18:30:02.512Z,57.55
2023-05-21T18:32:29.673Z,56.58
2023-05-21T18:34:58.160Z,56.10
2023-05-21T18:37:26.032Z,58.43
2023-05-21T18:39:52.997Z,55.33
2023-05-21T18:42:19.816Z,55.18
2023-05-21T18:44:46.813Z,55.03
2023-05-21T18:47:14.012Z,55.31
2023-05-21T18:49:40.832Z,54.97
2023-05-21T18:52:08.271Z,54.65
2023-05-21T18:54:35.221Z,54.52
2023-05-21T18:57:02.061Z,54.42
2023-05-21T18:59:29.836Z,53.68
2023-05-21T19:01:57.195Z,54.53
2023-05-21T19:04:24.037Z,55.22
2023-05-21T19:06:51.070Z,56.33
2023-05-21T19:09:17.975Z,56.37
2023-05-21T19:11:45.945Z,56.12
2023-05-21T19:14:13.819Z,56.94
2023-05-21T19:16:40.850Z,57.35
2023-05-21T19:19:09.027Z,58.39
2023-05-21T19:21:36.207Z,58.66
2023-05-21T19:24:05.544Z,59.02
2023-05-21T19:26:33.026Z,60.43
2023-05-21T19:28:59.927Z,62.05
2023-05-21T19:31:26.913Z,63.00
2023-05-21T19:33:54.183Z,63.47
2023-05-21T19:36:21.709Z,65.51
2023-05-21T19:38:49.728Z,64.72
2023-05-21T19:41:22.094Z,66.66
2023-05-21T19:43:49.069Z,66.54
2023-05-21T19:46:19.820Z,65.70
2023-05-21T19:48:47.467Z,67.28
2023-05-21T19:51:14.400Z,67.59
2023-05-21T19:53:41.252Z,68.73
2023-05-21T19:56:08.140Z,67.53
2023-05-21T19:58:35.077Z,67.63
2023-05-21T20:01:03.682Z,68.25
2023-05-21T20:03:35.974Z,69.49
2023-05-21T20:06:03.486Z,70.41
2023-05-21T20:08:30.613Z,69.56
2023-05-21T20:10:57.492Z,69.50
2023-05-21T20:13:24.593Z,69.16
2023-05-21T20:15:51.657Z,67.18
2023-05-21T20:18:20.258Z,69.25
2023-05-21T20:20:47.483Z,69.62
2023-05-21T20:23:14.418Z,69.98
2023-05-21T20:25:41.242Z,71.43
2023-05-21T20:28:08.799Z,70.84
2023-05-21T20:30:53.118Z,70.88
2023-05-21T20:33:21.704Z,70.89
2023-05-21T20:35:48.617Z,72.16
2023-05-21T20:38:16.105Z,72.25
2023-05-21T20:40:44.384Z,73.31
2023-05-21T20:43:15.328Z,71.36
2023-05-21T20:45:43.682Z,71.53
2023-05-21T20:48:12.186Z,70.32
2023-05-21T20:50:40.981Z,69.64
2023-05-21T20:53:08.593Z,70.40
2023-05-21T20:55:35.492Z,70.97
2023-05-21T20:58:03.723Z,70.95
2023-05-21T21:00:33.466Z,71.09
2023-05-21T21:03:01.444Z,69.56
2023-05-21T21:05:28.660Z,70.54
2023-05-21T21:07:56.036Z,70.32
2023-05-21T21:10:23.215Z,71.18
2023-05-21T21:12:50.126Z,70.15
2023-05-21T21:15:17.129Z,68.43
2023-05-21T21:17:44.183Z,70.47
2023-05-21T21:20:12.969Z,70.91
2023-05-21T21:22:40.094Z,71.52
2023-05-21T21:25:07.478Z,71.94
2023-05-21T21:27:34.892Z,71.10
2023-05-21T21:30:01.823Z,72.72
2023-05-21T21:32:28.903Z,73.52
2023-05-21T21:34:55.772Z,74.50
2023-05-21T21:37:22.630Z,75.45
2023-05-21T21:39:49.656Z,74.67
2023-05-21T21:42:16.682Z,75.11
2023-05-21T21:44:43.650Z,74.75
2023-05-21T21:47:10.898Z,74.94
2023-05-21T21:49:37.774Z,75.77
2023-05-21T21:52:04.929Z,76.98
2023-05-21T21:54:32.010Z,77.28
2023-05-21T21:57:01.634Z,77.24
2023-05-21T21:59:28.525Z,77.58
2023-05-21T22:01:55.957Z,77.58
2023-05-21T22:04:22.893Z,76.34
2023-05-21T22:06:50.163Z,77.27
2023-05-21T22:09:17.744Z,78.63
2023-05-21T22:11:44.632Z,78.77
2023-05-21T22:14:12.001Z,79.40
2023-05-21T22:16:39.097Z,79.43
2023-05-21T22:19:06.044Z,79.58
2023-05-21T22:21:33.230Z,79.04
2023-05-21T22:24:00.310Z,79.09
2023-05-21T22:26:27.145Z,79.83
2023-05-21T22:28:53.961Z,79.65
2023-05-21T22:31:21.204Z,79.48
2023-05-21T22:33:48.067Z,81.01
2023-05-21T22:36:14.903Z,80.90
2023-05-21T22:38:43.706Z,79.86
2023-05-21T22:41:11.245Z,79.71
2023-05-21T22:43:38.286Z,79.70
2023-05-21T22:46:05.505Z,80.34
2023-05-21T22:48:32.470Z,80.77
2023-05-21T22:51:01.970Z,80.29
2023-05-21T22:53:29.029Z,81.70
2023-05-21T22:55:56.032Z,80.65
2023-05-21T22:58:22.931Z,79.75
2023-05-21T23:00:50.018Z,80.43
2023-05-21T23:03:17.593Z,79.86
2023-05-21T23:05:44.813Z,80.45
2023-05-21T23:08:12.295Z,79.34
2023-05-21T23:10:39.404Z,79.47
2023-05-21T23:13:06.453Z,80.22
2023-05-21T23:15:34.095Z,80.54
2023-05-21T23:18:02.476Z,80.64
2023-05-21T23:20:29.898Z,80.48
2023-05-21T23:22:56.792Z,81.04
2023-05-21T23:25:23.714Z,80.73
2023-05-21T23:27:50.650Z,82.27
2023-05-21T23:34:33.303Z,83.21
2023-05-21T23:37:00.786Z,83.90
2023-05-21T23:39:28.850Z,83.80
2023-05-21T23:41:56.063Z,83.68
2023-05-21T23:44:22.913Z,83.52
2023-05-21T23:46:50.212Z,83.73
2023-05-21T23:49:17.470Z,84.04
2023-05-21T23:51:44.388Z,84.37
2023-05-21T23:54:11.305Z,84.90
2023-05-21T23:56:38.356Z,84.00
2023-05-21T23:59:05.814Z,84.27
